Reading, Illinois
Current Conditions -  °F | °C
As of 12:55 PM on Tuesday 27 Jan 2015 (Local Time) from KPNT Reporting Station
Overcast Overcast  
Wind Chill: 27°   Ceiling: 1300
Heat Index: 32°   Visibility: 7mi
Dew Point: 28°   Wind: 5mph
Humidity: 88%   Direction: 40°NE
Pressure: 30.18"   Gusts: NA
Location:  41.0465°N, 88.8725°W
Report Text: KPNT 271855Z AUTO 04004KT 7SM BKN013 OVC018 00/M02 A3018 RMK AO2 P0001 T10021020
Loading
Personal Weather Stations






























Interactive Weather Map New forecast layout! Learn more

10-Day Weather Forecast

Advertisements
Track Severe Weather on mobile